Lewisburg, Arkansas
Current Conditions -  °F | °C
As of 7:53 PM on Saturday 22 Nov 2014 (Local Time) from KRUE Reporting Station
Haze Haze  
Wind Chill: 53°   Ceiling: 4800
Heat Index: 53°   Visibility: 4mi
Dew Point: 51°   Wind: 0mph
Humidity: 93%   Direction: NA
Pressure: 29.93"   Gusts: NA
Location:  35.227°N, 92.6879°W
Report Text: KRUE 230153Z AUTO 00000KT 4SM BR OVC048 12/11 A2993 RMK AO2 SLP132 T01170106
Loading
Personal Weather Stations






























Interactive Weather Map New forecast layout! Learn more

10-Day Weather Forecast

Advertisements
Track Severe Weather on mobile